createdAt,value
2023-01-21T00:01:34.398Z,25.00
2023-01-21T00:04:02.029Z,25.00
2023-01-21T00:06:29.622Z,25.00
2023-01-21T00:09:00.680Z,25.00
2023-01-21T00:11:28.374Z,24.90
2023-01-21T00:13:56.687Z,24.90
2023-01-21T00:16:24.303Z,24.90
2023-01-21T00:18:51.983Z,24.90
2023-01-21T00:21:19.655Z,24.80
2023-01-21T00:23:47.307Z,24.80
2023-01-21T00:26:16.288Z,24.80
2023-01-21T00:28:44.294Z,24.80
2023-01-21T00:31:12.797Z,24.80
2023-01-21T00:33:40.734Z,24.80
2023-01-21T00:36:10.396Z,24.80
2023-01-21T00:38:38.683Z,24.70
2023-01-21T00:41:08.772Z,24.70
2023-01-21T00:43:37.974Z,24.70
2023-01-21T00:46:06.044Z,24.70
2023-01-21T00:48:34.008Z,24.70
2023-01-21T00:51:01.876Z,24.70
2023-01-21T00:53:30.554Z,24.70
2023-01-21T00:56:00.667Z,24.60
2023-01-21T00:58:28.879Z,24.60
2023-01-21T01:01:03.603Z,24.60
2023-01-21T01:03:31.650Z,24.60
2023-01-21T01:06:03.925Z,24.60
2023-01-21T01:08:31.616Z,24.60
2023-01-21T01:10:59.534Z,24.50
2023-01-21T01:13:27.587Z,24.50
2023-01-21T01:15:56.154Z,24.50
2023-01-21T01:18:26.146Z,24.50
2023-01-21T01:20:54.196Z,24.50
2023-01-21T01:23:21.821Z,24.50
2023-01-21T01:25:55.969Z,24.50
2023-01-21T01:28:23.841Z,24.40
2023-01-21T01:30:51.583Z,24.40
2023-01-21T01:33:20.245Z,24.40
2023-01-21T01:35:50.108Z,24.40
2023-01-21T01:38:20.121Z,24.40
2023-01-21T01:40:48.447Z,24.40
2023-01-21T01:43:18.944Z,24.30
2023-01-21T01:45:48.531Z,24.30
2023-01-21T01:48:19.864Z,24.30
2023-01-21T01:50:49.964Z,24.30
2023-01-21T01:53:19.705Z,24.30
2023-01-21T01:55:48.585Z,24.30
2023-01-21T01:58:18.092Z,24.20
2023-01-21T02:00:46.004Z,24.20
2023-01-21T02:03:32.272Z,24.20
2023-01-21T02:06:01.738Z,24.20
2023-01-21T02:08:30.324Z,24.20
2023-01-21T02:10:57.971Z,24.20
2023-01-21T02:13:27.212Z,24.20
2023-01-21T02:16:09.481Z,24.20
2023-01-21T02:18:41.292Z,24.20
2023-01-21T02:21:38.655Z,24.10
2023-01-21T02:24:39.357Z,24.10
2023-01-21T02:27:30.735Z,24.10
2023-01-21T02:30:19.671Z,24.10
2023-01-21T02:33:15.747Z,24.10
2023-01-21T02:35:52.253Z,24.00
2023-01-21T02:38:28.562Z,24.00
2023-01-21T02:41:04.097Z,24.00
2023-01-21T02:43:40.698Z,24.00
2023-01-21T02:46:14.999Z,24.00
2023-01-21T02:48:48.736Z,24.00
2023-01-21T02:51:19.864Z,24.00
2023-01-21T02:53:47.608Z,23.90
2023-01-21T02:56:19.335Z,23.90
2023-01-21T02:58:50.357Z,23.90
2023-01-21T03:01:27.542Z,23.90
2023-01-21T03:04:08.834Z,23.90
2023-01-21T03:06:46.104Z,23.90
2023-01-21T03:09:22.093Z,23.90
2023-01-21T03:12:00.363Z,23.90
2023-01-21T03:14:51.360Z,23.80
2023-01-21T03:17:29.496Z,23.80
2023-01-21T03:20:06.099Z,23.80
2023-01-21T03:22:36.114Z,23.80
2023-01-21T03:25:06.358Z,23.80
2023-01-21T03:27:34.279Z,23.80
2023-01-21T03:30:05.884Z,23.80
2023-01-21T03:32:35.580Z,23.70
2023-01-21T03:35:08.423Z,23.70
2023-01-21T03:37:41.835Z,23.70
2023-01-21T03:40:19.008Z,23.70
2023-01-21T03:42:50.387Z,23.70
2023-01-21T03:45:21.590Z,23.70
2023-01-21T03:47:54.575Z,23.70
2023-01-21T03:50:28.281Z,23.70
2023-01-21T03:52:56.035Z,23.60
2023-01-21T03:55:24.070Z,23.60
2023-01-21T03:57:51.685Z,23.60
2023-01-21T04:00:20.083Z,23.60
2023-01-21T04:02:47.723Z,23.60
2023-01-21T04:05:15.457Z,23.60
2023-01-21T04:07:44.436Z,23.60
2023-01-21T04:10:12.407Z,23.60
2023-01-21T04:12:40.652Z,23.60
2023-01-21T04:15:09.802Z,23.60
2023-01-21T04:17:37.427Z,23.50
2023-01-21T04:20:05.829Z,23.50
2023-01-21T04:22:33.481Z,23.50
2023-01-21T04:25:02.451Z,23.50
2023-01-21T04:27:30.120Z,23.50
2023-01-21T04:29:57.769Z,23.50
2023-01-21T04:32:25.447Z,23.50
2023-01-21T04:34:53.068Z,23.50
2023-01-21T04:37:20.718Z,23.50
2023-01-21T04:39:48.347Z,23.50
2023-01-21T04:42:17.335Z,23.40
2023-01-21T04:44:45.939Z,23.40
2023-01-21T04:47:13.796Z,23.40
2023-01-21T04:49:41.400Z,23.40
2023-01-21T04:52:09.269Z,23.40
2023-01-21T04:54:36.920Z,23.40
2023-01-21T04:57:04.611Z,23.40
2023-01-21T04:59:33.764Z,23.40
2023-01-21T05:02:01.490Z,23.40
2023-01-21T05:04:29.363Z,23.40
2023-01-21T05:07:01.646Z,23.30
2023-01-21T05:09:29.476Z,23.30
2023-01-21T05:12:02.500Z,23.30
2023-01-21T05:14:30.206Z,23.30
2023-01-21T05:16:59.542Z,23.30
2023-01-21T05:19:32.203Z,23.30
2023-01-21T05:22:01.057Z,23.30
2023-01-21T05:24:28.775Z,23.30
2023-01-21T05:26:56.419Z,23.30
2023-01-21T05:29:24.076Z,23.30
2023-01-21T05:31:51.762Z,23.30
2023-01-21T05:34:20.727Z,23.20
2023-01-21T05:36:48.341Z,23.20
2023-01-21T05:39:16.110Z,23.20
2023-01-21T05:41:43.731Z,23.20
2023-01-21T05:44:11.463Z,23.20
2023-01-21T05:46:39.149Z,23.20
2023-01-21T05:49:06.770Z,23.20
2023-01-21T05:51:35.728Z,23.20
2023-01-21T05:54:03.356Z,23.20
2023-01-21T05:56:31.010Z,23.20
2023-01-21T05:58:58.639Z,23.20
2023-01-21T06:01:26.903Z,23.20
2023-01-21T06:03:55.390Z,23.20
2023-01-21T06:06:23.429Z,23.20
2023-01-21T06:08:52.420Z,23.20
2023-01-21T06:11:20.066Z,23.20
2023-01-21T06:13:47.736Z,23.20
2023-01-21T06:16:15.408Z,23.20
2023-01-21T06:18:43.068Z,23.20
2023-01-21T06:21:10.813Z,23.20
2023-01-21T06:23:38.444Z,23.20
2023-01-21T06:26:07.553Z,23.20
2023-01-21T06:28:35.153Z,23.20
2023-01-21T06:31:02.943Z,23.20
2023-01-21T06:33:30.663Z,23.20
2023-01-21T06:35:58.296Z,23.20
2023-01-21T06:38:26.073Z,23.20
2023-01-21T06:40:53.701Z,23.20
2023-01-21T06:43:22.686Z,23.20
2023-01-21T06:45:50.295Z,23.20
2023-01-21T06:48:17.920Z,23.20
2023-01-21T06:50:45.632Z,23.20
2023-01-21T06:53:13.404Z,23.20
2023-01-21T06:55:41.340Z,23.20
2023-01-21T06:58:08.989Z,23.20
2023-01-21T07:00:38.059Z,23.20
2023-01-21T07:03:05.718Z,23.20
2023-01-21T07:05:33.427Z,23.20
2023-01-21T07:08:01.161Z,23.20
2023-01-21T07:10:28.924Z,23.30
2023-01-21T07:12:56.559Z,23.30
2023-01-21T07:15:24.653Z,23.30
2023-01-21T07:17:54.368Z,23.30
2023-01-21T07:20:22.700Z,23.30
2023-01-21T07:22:50.368Z,23.30
2023-01-21T07:25:18.811Z,23.30
2023-01-21T07:27:46.575Z,23.30
2023-01-21T07:30:19.266Z,23.30
2023-01-21T07:32:47.598Z,23.40
2023-01-21T07:35:17.211Z,23.40
2023-01-21T07:37:45.046Z,23.40
2023-01-21T07:40:13.722Z,23.40
2023-01-21T07:42:41.359Z,23.40
2023-01-21T07:45:10.009Z,23.40
2023-01-21T07:47:37.705Z,23.50
2023-01-21T07:50:08.561Z,23.50
2023-01-21T07:52:37.716Z,23.50
2023-01-21T07:55:05.976Z,23.50
2023-01-21T07:57:33.996Z,23.50
2023-01-21T08:00:01.998Z,23.50
2023-01-21T08:02:29.717Z,23.60
2023-01-21T08:04:57.347Z,23.60
2023-01-21T08:07:24.988Z,23.60
2023-01-21T08:09:54.227Z,23.60
2023-01-21T08:12:21.866Z,23.60
2023-01-21T08:14:49.470Z,23.60
2023-01-21T08:17:17.105Z,23.60
2023-01-21T08:19:44.724Z,23.60
2023-01-21T08:22:12.327Z,23.70
2023-01-21T08:24:39.940Z,23.70
2023-01-21T08:27:09.041Z,23.70
2023-01-21T08:29:36.696Z,23.70
2023-01-21T08:32:04.378Z,23.80
2023-01-21T08:34:32.065Z,23.80
2023-01-21T08:36:59.726Z,23.80
2023-01-21T08:39:27.411Z,23.80
2023-01-21T08:41:55.078Z,23.80
2023-01-21T08:44:25.007Z,23.80
2023-01-21T08:46:52.603Z,23.80
2023-01-21T08:49:20.244Z,23.90
2023-01-21T08:51:48.138Z,23.90
2023-01-21T08:54:16.378Z,23.90
2023-01-21T08:56:44.012Z,23.90
2023-01-21T08:59:13.040Z,23.90
2023-01-21T09:01:42.452Z,23.90
2023-01-21T09:04:10.541Z,23.90
2023-01-21T09:06:38.212Z,23.90
2023-01-21T09:09:05.910Z,23.90
2023-01-21T09:11:34.700Z,23.90
2023-01-21T09:14:04.156Z,24.00
2023-01-21T09:16:32.928Z,24.00
2023-01-21T09:19:02.506Z,24.00
2023-01-21T09:21:34.451Z,24.00
2023-01-21T09:24:02.701Z,24.00
2023-01-21T09:26:30.656Z,24.00
2023-01-21T09:29:00.524Z,24.00
2023-01-21T09:31:30.543Z,24.00
2023-01-21T09:33:59.922Z,24.00
2023-01-21T09:36:30.350Z,24.00
2023-01-21T09:38:59.606Z,24.00
2023-01-21T09:41:31.337Z,24.00
2023-01-21T09:44:12.498Z,24.00
2023-01-21T09:46:48.280Z,24.00
2023-01-21T09:49:38.107Z,24.00
2023-01-21T09:52:31.824Z,24.00
2023-01-21T09:55:05.486Z,24.00
2023-01-21T09:58:04.915Z,24.00
2023-01-21T10:00:38.156Z,24.00
2023-01-21T10:03:18.589Z,24.10
2023-01-21T10:06:22.817Z,24.10
2023-01-21T10:09:16.839Z,24.10
2023-01-21T10:11:58.064Z,24.10
2023-01-21T10:14:44.374Z,24.10
2023-01-21T10:17:17.549Z,24.10
2023-01-21T10:19:52.615Z,24.10
2023-01-21T10:22:25.973Z,24.10
2023-01-21T10:24:58.491Z,24.00
2023-01-21T10:27:26.850Z,24.00
2023-01-21T10:29:58.278Z,24.00
2023-01-21T10:32:28.235Z,24.00
2023-01-21T10:34:58.099Z,24.00
2023-01-21T10:37:36.905Z,24.00
2023-01-21T10:40:14.086Z,24.00
2023-01-21T10:42:51.602Z,24.00
2023-01-21T10:45:27.682Z,24.00
2023-01-21T10:48:04.585Z,24.10
2023-01-21T10:50:43.810Z,24.10
2023-01-21T10:53:21.369Z,24.10
2023-01-21T10:56:05.259Z,24.10
2023-01-21T10:58:37.031Z,24.10
2023-01-21T11:01:08.772Z,24.10
2023-01-21T11:03:41.231Z,24.10
2023-01-21T11:06:12.527Z,24.10
2023-01-21T11:08:41.737Z,24.10
2023-01-21T11:11:11.352Z,24.20
2023-01-21T11:13:41.206Z,24.20
2023-01-21T11:16:09.443Z,24.20
2023-01-21T11:18:39.028Z,24.20
2023-01-21T11:21:18.265Z,24.20
2023-01-21T11:23:54.811Z,24.20
2023-01-21T11:26:27.118Z,24.20
2023-01-21T11:29:08.720Z,24.20
2023-01-21T11:31:36.802Z,24.30
2023-01-21T11:34:12.257Z,24.30
2023-01-21T11:36:55.176Z,24.30
2023-01-21T11:39:25.092Z,24.30
2023-01-21T11:41:55.423Z,24.40
2023-01-21T11:44:23.829Z,24.40
2023-01-21T11:46:52.446Z,24.40
2023-01-21T11:49:29.057Z,24.40
2023-01-21T11:52:17.971Z,24.50
2023-01-21T11:54:47.099Z,24.50
2023-01-21T11:57:27.720Z,24.50
2023-01-21T11:59:59.510Z,24.50
2023-01-21T12:02:30.830Z,24.60
2023-01-21T12:05:02.720Z,24.60
2023-01-21T12:07:32.994Z,24.60
2023-01-21T12:10:09.558Z,24.60
2023-01-21T12:12:53.774Z,24.60
2023-01-21T12:15:45.325Z,24.70
2023-01-21T12:18:27.353Z,24.70
2023-01-21T12:21:03.748Z,24.70
2023-01-21T12:23:58.982Z,24.70
2023-01-21T12:26:42.650Z,24.80
2023-01-21T12:29:35.071Z,24.80
2023-01-21T12:32:12.629Z,24.80
2023-01-21T12:34:48.400Z,24.80
2023-01-21T12:37:24.212Z,24.80
2023-01-21T12:39:55.485Z,24.90
2023-01-21T12:42:30.188Z,24.90
2023-01-21T12:45:04.718Z,24.90
2023-01-21T12:47:41.009Z,24.90
2023-01-21T12:50:30.358Z,25.00
2023-01-21T12:53:16.309Z,25.00
2023-01-21T12:56:01.885Z,25.00
2023-01-21T12:58:33.502Z,25.00
2023-01-21T13:01:07.338Z,25.00
2023-01-21T13:03:49.168Z,25.00
2023-01-21T13:06:29.532Z,25.10
2023-01-21T13:09:05.804Z,25.10
2023-01-21T13:11:38.517Z,25.10
2023-01-21T13:14:25.757Z,25.10
2023-01-21T13:17:00.338Z,25.10
2023-01-21T13:19:28.657Z,25.10
2023-01-21T13:22:08.013Z,25.10
2023-01-21T13:24:55.145Z,25.10
2023-01-21T13:27:32.216Z,25.10
2023-01-21T13:30:07.533Z,25.10
2023-01-21T13:32:47.573Z,25.10
2023-01-21T13:35:27.244Z,25.10
2023-01-21T13:38:02.629Z,25.10
2023-01-21T13:40:41.157Z,25.10
2023-01-21T13:43:23.252Z,25.10
2023-01-21T13:46:04.597Z,25.10
2023-01-21T13:48:47.026Z,25.10
2023-01-21T13:51:26.414Z,25.10
2023-01-21T13:54:11.616Z,25.10
2023-01-21T13:56:59.802Z,25.10
2023-01-21T13:59:33.482Z,25.10
2023-01-21T14:02:07.073Z,25.10
2023-01-21T14:04:43.282Z,25.10
2023-01-21T14:07:14.103Z,25.10
2023-01-21T14:09:45.419Z,25.10
2023-01-21T14:12:18.630Z,25.10
2023-01-21T14:15:11.491Z,25.10
2023-01-21T14:18:03.342Z,25.10
2023-01-21T14:20:44.837Z,25.10
2023-01-21T14:23:35.284Z,25.10
2023-01-21T14:26:29.027Z,25.10
2023-01-21T14:29:06.745Z,25.10
2023-01-21T14:31:39.225Z,25.10
2023-01-21T14:34:17.152Z,25.10
2023-01-21T14:36:54.190Z,25.10
2023-01-21T14:39:34.524Z,25.10
2023-01-21T14:42:07.092Z,25.10
2023-01-21T14:44:44.524Z,25.10
2023-01-21T14:47:23.009Z,25.20
2023-01-21T14:49:53.188Z,25.10
2023-01-21T14:52:28.967Z,25.10
2023-01-21T14:54:57.034Z,25.10
2023-01-21T14:57:29.685Z,25.10
2023-01-21T15:00:11.444Z,25.10
2023-01-21T15:02:43.070Z,25.10
2023-01-21T15:05:23.696Z,25.20
2023-01-21T15:08:06.131Z,25.10
2023-01-21T15:10:36.252Z,25.10
2023-01-21T15:13:07.240Z,25.10
2023-01-21T15:15:37.100Z,25.10
2023-01-21T15:18:24.909Z,25.10
2023-01-21T15:20:57.896Z,25.10
2023-01-21T15:23:39.929Z,25.10
2023-01-21T15:26:20.539Z,25.10
2023-01-21T15:28:49.336Z,25.10
2023-01-21T15:31:43.852Z,25.10
2023-01-21T15:34:16.948Z,25.10
2023-01-21T15:36:47.097Z,25.10
2023-01-21T15:39:18.625Z,25.10
2023-01-21T15:41:58.789Z,25.10
2023-01-21T15:44:47.005Z,25.10
2023-01-21T15:47:36.172Z,25.10
2023-01-21T15:50:11.213Z,25.10
2023-01-21T15:52:56.195Z,25.10
2023-01-21T15:55:42.662Z,25.10
2023-01-21T15:58:22.313Z,25.10
2023-01-21T16:00:56.630Z,25.10
2023-01-21T16:03:28.804Z,25.10
2023-01-21T16:06:02.777Z,25.10
2023-01-21T16:08:56.608Z,25.10
2023-01-21T16:11:41.422Z,25.10
2023-01-21T16:14:23.007Z,25.10
2023-01-21T16:17:00.359Z,25.10
2023-01-21T16:19:31.421Z,25.10
2023-01-21T16:22:02.652Z,25.10
2023-01-21T16:24:31.020Z,25.10
2023-01-21T16:27:17.709Z,25.10
2023-01-21T16:29:45.302Z,25.10
2023-01-21T16:32:19.138Z,25.10
2023-01-21T16:34:48.262Z,25.10
2023-01-21T16:37:17.748Z,25.10
2023-01-21T16:39:46.384Z,25.10
2023-01-21T16:42:25.791Z,25.10
2023-01-21T16:44:53.743Z,25.10
2023-01-21T16:47:25.821Z,25.10
2023-01-21T16:49:54.159Z,25.10
2023-01-21T16:52:24.441Z,25.10
2023-01-21T16:54:53.327Z,25.10
2023-01-21T16:57:28.801Z,25.10
2023-01-21T16:59:58.095Z,25.10
2023-01-21T17:02:28.657Z,25.10
2023-01-21T17:04:58.613Z,25.10
2023-01-21T17:07:30.199Z,25.10
2023-01-21T17:10:03.249Z,25.10
2023-01-21T17:12:36.253Z,25.10
2023-01-21T17:15:10.471Z,25.10
2023-01-21T17:17:38.798Z,25.10
2023-01-21T17:20:09.139Z,25.10
2023-01-21T17:22:41.278Z,25.10
2023-01-21T17:25:25.069Z,25.10
2023-01-21T17:27:58.595Z,25.10
2023-01-21T17:30:29.684Z,25.10
2023-01-21T17:32:58.652Z,25.10
2023-01-21T17:35:29.438Z,25.10
2023-01-21T17:37:59.488Z,25.10
2023-01-21T17:40:32.633Z,25.10
2023-01-21T17:43:10.549Z,25.10
2023-01-21T17:45:44.057Z,25.10
2023-01-21T17:48:24.681Z,25.10
2023-01-21T17:50:53.018Z,25.10
2023-01-21T17:53:24.151Z,25.10
2023-01-21T17:56:00.302Z,25.10
2023-01-21T17:58:50.916Z,25.10
2023-01-21T18:01:23.206Z,25.10
2023-01-21T18:03:54.196Z,25.00
2023-01-21T18:06:25.639Z,25.00
2023-01-21T18:08:54.138Z,25.10
2023-01-21T18:11:22.546Z,25.00
2023-01-21T18:13:52.582Z,25.10
2023-01-21T18:16:20.394Z,25.10
2023-01-21T18:18:49.446Z,25.10
2023-01-21T18:21:21.946Z,25.10
2023-01-21T18:23:50.283Z,25.10
2023-01-21T18:26:27.312Z,25.10
2023-01-21T18:28:56.564Z,25.10
2023-01-21T18:31:24.483Z,25.10
2023-01-21T18:33:52.394Z,25.10
2023-01-21T18:36:23.318Z,25.10
2023-01-21T18:38:54.295Z,25.10
2023-01-21T18:41:25.486Z,25.10
2023-01-21T18:43:57.103Z,25.10
2023-01-21T18:46:26.360Z,25.10
2023-01-21T18:48:58.984Z,25.10
2023-01-21T18:51:30.816Z,25.10
2023-01-21T18:54:02.869Z,25.10
2023-01-21T18:56:35.232Z,25.10
2023-01-21T18:59:14.188Z,25.10
2023-01-21T19:01:50.490Z,25.10
2023-01-21T19:04:24.416Z,25.10
2023-01-21T19:06:55.385Z,25.10
2023-01-21T19:09:24.675Z,25.20
2023-01-21T19:11:53.844Z,25.10
2023-01-21T19:14:21.502Z,25.10
2023-01-21T19:16:51.458Z,25.10
2023-01-21T19:19:26.679Z,25.10
2023-01-21T19:22:01.757Z,25.10
2023-01-21T19:24:38.645Z,25.10
2023-01-21T19:27:18.111Z,25.10
2023-01-21T19:29:51.471Z,25.10
2023-01-21T19:32:26.454Z,25.10
2023-01-21T19:34:59.650Z,25.10
2023-01-21T19:37:32.170Z,25.10
2023-01-21T19:40:05.008Z,25.10
2023-01-21T19:42:37.873Z,25.10
2023-01-21T19:45:06.496Z,25.10
2023-01-21T19:47:42.834Z,25.10
2023-01-21T19:50:18.553Z,25.10
2023-01-21T19:52:52.502Z,25.10
2023-01-21T19:55:27.945Z,25.10
2023-01-21T19:57:57.960Z,25.10
2023-01-21T20:00:27.650Z,25.10
2023-01-21T20:02:56.802Z,25.10
2023-01-21T20:05:26.310Z,25.10
2023-01-21T20:07:55.327Z,25.10
2023-01-21T20:10:25.616Z,25.10
2023-01-21T20:12:54.133Z,25.10
2023-01-21T20:15:24.775Z,25.10
2023-01-21T20:17:57.789Z,25.10
2023-01-21T20:20:27.576Z,25.10
2023-01-21T20:22:59.885Z,25.10
2023-01-21T20:25:36.870Z,25.10
2023-01-21T20:28:17.801Z,25.10
2023-01-21T20:30:46.451Z,25.10
2023-01-21T20:33:18.078Z,25.20
2023-01-21T20:35:48.468Z,25.20
2023-01-21T20:38:18.872Z,25.20
2023-01-21T20:40:48.075Z,25.20
2023-01-21T20:43:17.841Z,25.20
2023-01-21T20:45:49.828Z,25.20
2023-01-21T20:48:25.115Z,25.20
2023-01-21T20:50:53.240Z,25.20
2023-01-21T20:53:21.371Z,25.20
2023-01-21T20:55:50.700Z,25.30
2023-01-21T20:58:22.052Z,25.30
2023-01-21T21:00:50.308Z,25.30
2023-01-21T21:03:19.960Z,25.30
2023-01-21T21:05:49.062Z,25.30
2023-01-21T21:08:18.575Z,25.30
2023-01-21T21:10:47.109Z,25.30
2023-01-21T21:13:15.396Z,25.30
2023-01-21T21:15:46.433Z,25.30
2023-01-21T21:18:14.809Z,25.30
2023-01-21T21:20:44.070Z,25.30
2023-01-21T21:23:14.355Z,25.30
2023-01-21T21:25:44.665Z,25.30
2023-01-21T21:28:15.183Z,25.30
2023-01-21T21:30:43.956Z,25.40
2023-01-21T21:33:17.709Z,25.40
2023-01-21T21:35:47.078Z,25.40
2023-01-21T21:38:17.058Z,25.40
2023-01-21T21:40:47.562Z,25.40
2023-01-21T21:43:32.474Z,25.40
2023-01-21T21:46:22.536Z,25.40
2023-01-21T21:48:51.952Z,25.40
2023-01-21T21:51:22.147Z,25.40
2023-01-21T21:53:50.601Z,25.40
2023-01-21T21:56:20.263Z,25.40
2023-01-21T21:58:48.262Z,25.40
2023-01-21T22:01:18.289Z,25.40
2023-01-21T22:03:46.213Z,25.40
2023-01-21T22:06:14.811Z,25.40
2023-01-21T22:08:44.056Z,25.40
2023-01-21T22:11:14.879Z,25.40
2023-01-21T22:13:43.885Z,25.40
2023-01-21T22:16:14.066Z,25.40
2023-01-21T22:18:41.731Z,25.40
2023-01-21T22:21:11.813Z,25.40
2023-01-21T22:23:39.976Z,25.40
2023-01-21T22:26:13.005Z,25.40
2023-01-21T22:28:41.232Z,25.40
2023-01-21T22:31:11.067Z,25.50
2023-01-21T22:33:39.433Z,25.50
2023-01-21T22:36:09.013Z,25.50
2023-01-21T22:38:40.381Z,25.50
2023-01-21T22:41:10.807Z,25.50
2023-01-21T22:43:39.887Z,25.50
2023-01-21T22:46:07.543Z,25.50
2023-01-21T22:48:35.368Z,25.50
2023-01-21T22:51:03.093Z,25.50
2023-01-21T22:53:30.756Z,25.50
2023-01-21T22:55:59.943Z,25.50
2023-01-21T22:58:30.361Z,25.50
2023-01-21T23:00:58.560Z,25.50
2023-01-21T23:03:27.409Z,25.50
2023-01-21T23:05:56.715Z,25.50
2023-01-21T23:08:24.311Z,25.50
2023-01-21T23:11:01.181Z,25.50
2023-01-21T23:13:30.353Z,25.50
2023-01-21T23:15:58.178Z,25.50
2023-01-21T23:18:27.581Z,25.50
2023-01-21T23:20:55.585Z,25.40
2023-01-21T23:23:23.468Z,25.40
2023-01-21T23:25:51.103Z,25.40
2023-01-21T23:28:18.708Z,25.40
2023-01-21T23:30:47.676Z,25.40
2023-01-21T23:33:16.124Z,25.40
2023-01-21T23:35:43.794Z,25.40
2023-01-21T23:38:11.462Z,25.40
2023-01-21T23:40:39.082Z,25.30
2023-01-21T23:43:11.866Z,25.30
2023-01-21T23:45:39.651Z,25.30
2023-01-21T23:48:08.607Z,25.30
2023-01-21T23:50:36.208Z,25.20
2023-01-21T23:53:03.836Z,25.20
2023-01-21T23:55:31.456Z,25.20
2023-01-21T23:57:59.076Z,25.20
